createdAt,value
2023-05-20T00:00:54.761Z,36.66
2023-05-20T00:01:54.781Z,36.66
2023-05-20T00:02:54.842Z,36.64
2023-05-20T00:03:54.965Z,36.66
2023-05-20T00:04:54.918Z,36.64
2023-05-20T00:05:54.919Z,36.65
2023-05-20T00:06:54.958Z,36.67
2023-05-20T00:07:54.987Z,36.66
2023-05-20T00:08:55.008Z,36.66
2023-05-20T00:09:55.130Z,36.69
2023-05-20T00:10:55.096Z,36.72
2023-05-20T00:11:55.153Z,36.71
2023-05-20T00:12:55.175Z,36.71
2023-05-20T00:13:55.255Z,36.72
2023-05-20T00:14:56.012Z,36.71
2023-05-20T00:15:55.278Z,36.71
2023-05-20T00:16:55.474Z,36.69
2023-05-20T00:17:55.418Z,36.72
2023-05-20T00:18:55.570Z,36.70
2023-05-20T00:19:55.441Z,36.70
2023-05-20T00:20:55.515Z,36.71
2023-05-20T00:21:55.530Z,36.71
2023-05-20T00:22:55.547Z,36.70
2023-05-20T00:23:55.581Z,36.73
2023-05-20T00:24:55.646Z,36.76
2023-05-20T00:25:56.965Z,36.73
2023-05-20T00:26:55.720Z,36.75
2023-05-20T00:27:55.747Z,36.73
2023-05-20T00:28:55.778Z,36.71
2023-05-20T00:29:55.817Z,36.75
2023-05-20T00:30:55.856Z,36.77
2023-05-20T00:31:56.010Z,36.76
2023-05-20T00:32:55.976Z,36.77
2023-05-20T00:33:55.995Z,36.75
2023-05-20T00:34:56.005Z,36.74
2023-05-20T00:35:56.014Z,36.75
2023-05-20T00:36:56.090Z,36.76
2023-05-20T00:37:56.109Z,36.75
2023-05-20T00:38:56.138Z,36.76
2023-05-20T00:39:56.184Z,36.72
2023-05-20T00:40:56.198Z,36.74
2023-05-20T00:41:56.224Z,36.75
2023-05-20T00:42:56.263Z,36.74
2023-05-20T00:43:56.313Z,36.75
2023-05-20T00:44:56.350Z,36.72
2023-05-20T00:45:56.461Z,36.75
2023-05-20T00:46:56.420Z,36.74
2023-05-20T00:47:56.571Z,36.78
2023-05-20T00:48:56.508Z,36.77
2023-05-20T00:49:56.545Z,36.75
2023-05-20T00:50:56.593Z,36.75
2023-05-20T00:51:56.639Z,36.76
2023-05-20T00:52:56.670Z,36.78
2023-05-20T00:53:56.697Z,36.77
2023-05-20T00:54:56.744Z,36.80
2023-05-20T00:55:56.796Z,36.79
2023-05-20T00:56:56.834Z,36.79
2023-05-20T00:57:56.900Z,36.84
2023-05-20T00:58:56.916Z,36.80
2023-05-20T00:59:56.990Z,36.80
2023-05-20T01:00:57.027Z,36.83
2023-05-20T01:01:57.119Z,36.79
2023-05-20T01:02:57.258Z,36.80
2023-05-20T01:03:57.144Z,36.80
2023-05-20T01:04:57.187Z,36.79
2023-05-20T01:05:57.228Z,36.79
2023-05-20T01:06:57.274Z,36.80
2023-05-20T01:07:57.302Z,36.80
2023-05-20T01:08:57.377Z,36.83
2023-05-20T01:09:57.423Z,36.84
2023-05-20T01:10:57.469Z,36.80
2023-05-20T01:11:57.528Z,36.82
2023-05-20T01:12:57.530Z,36.84
2023-05-20T01:13:57.571Z,36.84
2023-05-20T01:14:57.618Z,36.84
2023-05-20T01:15:57.737Z,36.88
2023-05-20T01:16:57.690Z,36.86
2023-05-20T01:17:57.933Z,36.86
2023-05-20T01:18:57.841Z,36.86
2023-05-20T01:19:57.833Z,36.84
2023-05-20T01:20:57.899Z,36.86
2023-05-20T01:21:57.943Z,36.86
2023-05-20T01:22:57.956Z,36.83
2023-05-20T01:23:58.026Z,36.85
2023-05-20T01:24:58.050Z,36.86
2023-05-20T01:25:58.079Z,36.88
2023-05-20T01:26:58.152Z,36.85
2023-05-20T01:27:58.233Z,36.84
2023-05-20T01:28:58.229Z,36.84
2023-05-20T01:29:58.246Z,36.86
2023-05-20T01:30:58.316Z,36.85
2023-05-20T01:31:58.340Z,36.90
2023-05-20T01:32:58.399Z,36.89
2023-05-20T01:33:58.669Z,36.85
2023-05-20T01:34:58.470Z,36.88
2023-05-20T01:35:58.491Z,36.84
2023-05-20T01:36:58.548Z,36.86
2023-05-20T01:37:58.571Z,36.88
2023-05-20T01:38:58.652Z,36.86
2023-05-20T01:39:58.659Z,36.86
2023-05-20T01:40:58.704Z,36.85
2023-05-20T01:41:58.783Z,36.84
2023-05-20T01:42:58.804Z,36.85
2023-05-20T01:43:58.846Z,36.85
2023-05-20T01:44:58.910Z,36.84
2023-05-20T01:45:58.948Z,36.84
2023-05-20T01:46:59.146Z,36.86
2023-05-20T01:47:59.105Z,36.87
2023-05-20T01:48:59.076Z,36.88
2023-05-20T01:49:59.167Z,36.87
2023-05-20T01:50:59.237Z,36.86
2023-05-20T01:51:59.276Z,36.84
2023-05-20T01:52:59.308Z,36.87
2023-05-20T01:53:59.351Z,36.87
2023-05-20T01:54:59.412Z,36.87
2023-05-20T01:55:59.457Z,36.87
2023-05-20T01:56:59.490Z,36.87
2023-05-20T01:57:59.582Z,36.90
2023-05-20T01:58:59.612Z,36.88
2023-05-20T01:59:59.663Z,36.88
2023-05-20T02:00:59.788Z,36.89
2023-05-20T02:01:59.833Z,36.88
2023-05-20T02:02:59.867Z,36.90
2023-05-20T02:03:59.912Z,36.90
2023-05-20T02:04:59.961Z,36.92
2023-05-20T02:06:00.152Z,36.93
2023-05-20T02:07:00.081Z,36.96
2023-05-20T02:08:00.137Z,36.94
2023-05-20T02:09:00.178Z,36.92
2023-05-20T02:10:00.217Z,36.92
2023-05-20T02:11:00.287Z,36.91
2023-05-20T02:12:00.348Z,36.90
2023-05-20T02:13:00.401Z,36.91
2023-05-20T02:14:00.459Z,36.95
2023-05-20T02:15:00.506Z,36.93
2023-05-20T02:16:00.655Z,36.93
2023-05-20T02:17:00.621Z,36.92
2023-05-20T02:18:00.740Z,36.94
2023-05-20T02:19:00.844Z,36.92
2023-05-20T02:20:00.817Z,36.92
2023-05-20T02:21:00.837Z,36.94
2023-05-20T02:22:00.905Z,36.95
2023-05-20T02:23:00.982Z,36.96
2023-05-20T02:24:01.017Z,36.96
2023-05-20T02:25:01.100Z,36.96
2023-05-20T02:26:01.135Z,36.97
2023-05-20T02:27:01.155Z,36.95
2023-05-20T02:28:01.250Z,36.94
2023-05-20T02:29:01.305Z,36.95
2023-05-20T02:30:01.383Z,36.95
2023-05-20T02:31:01.407Z,36.96
2023-05-20T02:32:01.444Z,36.96
2023-05-20T02:33:01.544Z,36.99
2023-05-20T02:34:01.615Z,36.96
2023-05-20T02:35:01.612Z,36.96
2023-05-20T02:36:01.688Z,36.97
2023-05-20T02:37:01.738Z,37.01
2023-05-20T02:38:01.810Z,36.95
2023-05-20T02:39:01.853Z,36.99
2023-05-20T02:40:01.922Z,36.98
2023-05-20T02:41:01.972Z,36.96
2023-05-20T02:42:02.033Z,36.96
2023-05-20T02:43:02.123Z,36.96
2023-05-20T02:44:02.146Z,37.00
2023-05-20T02:45:02.774Z,36.97
2023-05-20T02:46:02.279Z,36.95
2023-05-20T02:47:02.335Z,36.98
2023-05-20T02:48:02.451Z,37.00
2023-05-20T02:49:02.467Z,36.99
2023-05-20T02:50:02.513Z,37.01
2023-05-20T02:51:02.587Z,37.02
2023-05-20T02:52:02.637Z,37.02
2023-05-20T02:53:02.697Z,36.97
2023-05-20T02:54:02.727Z,37.00
2023-05-20T02:55:02.794Z,36.98
2023-05-20T02:56:02.854Z,37.06
2023-05-20T02:57:02.944Z,37.01
2023-05-20T02:58:03.021Z,37.03
2023-05-20T02:59:03.034Z,37.01
2023-05-20T03:00:03.072Z,37.03
2023-05-20T03:01:03.145Z,37.07
2023-05-20T03:02:03.266Z,37.04
2023-05-20T03:03:03.322Z,37.07
2023-05-20T03:04:03.347Z,37.05
2023-05-20T03:05:03.378Z,37.06
2023-05-20T03:06:03.441Z,37.06
2023-05-20T03:07:03.490Z,37.06
2023-05-20T03:08:03.590Z,37.07
2023-05-20T03:09:03.612Z,37.04
2023-05-20T03:10:03.685Z,37.05
2023-05-20T03:11:04.835Z,37.04
2023-05-20T03:12:03.815Z,37.05
2023-05-20T03:13:03.895Z,37.06
2023-05-20T03:14:03.933Z,37.08
2023-05-20T03:15:04.002Z,37.04
2023-05-20T03:16:04.062Z,37.05
2023-05-20T03:17:04.124Z,37.07
2023-05-20T03:18:04.220Z,37.04
2023-05-20T03:19:04.295Z,37.06
2023-05-20T03:20:04.278Z,37.01
2023-05-20T03:21:04.350Z,37.05
2023-05-20T03:22:04.414Z,37.04
2023-05-20T03:23:04.490Z,37.03
2023-05-20T03:24:04.552Z,37.03
2023-05-20T03:25:05.237Z,37.08
2023-05-20T03:26:04.676Z,37.04
2023-05-20T03:27:04.707Z,37.05
2023-05-20T03:28:04.798Z,37.02
2023-05-20T03:29:04.846Z,37.03
2023-05-20T03:30:04.919Z,37.07
2023-05-20T03:31:04.995Z,37.07
2023-05-20T03:32:05.016Z,37.05
2023-05-20T03:33:05.077Z,37.06
2023-05-20T03:34:05.138Z,37.04
2023-05-20T03:35:05.210Z,37.07
2023-05-20T03:36:05.302Z,37.07
2023-05-20T03:37:05.333Z,37.07
2023-05-20T03:38:05.398Z,37.08
2023-05-20T03:39:05.443Z,37.08
2023-05-20T03:40:05.507Z,37.06
2023-05-20T03:41:05.542Z,37.10
2023-05-20T03:42:05.675Z,37.09
2023-05-20T03:43:05.755Z,37.12
2023-05-20T03:44:05.746Z,37.10
2023-05-20T03:45:05.780Z,37.09
2023-05-20T03:46:05.871Z,37.09
2023-05-20T03:47:05.971Z,37.07
2023-05-20T03:48:06.023Z,37.08
2023-05-20T03:49:06.189Z,37.05
2023-05-20T03:50:06.085Z,37.08
2023-05-20T03:51:06.175Z,37.06
2023-05-20T03:52:06.248Z,37.03
2023-05-20T03:53:06.284Z,37.08
2023-05-20T03:54:06.349Z,37.11
2023-05-20T03:55:06.392Z,37.08
2023-05-20T03:56:06.480Z,37.06
2023-05-20T03:57:06.536Z,37.10
2023-05-20T03:58:06.593Z,37.12
2023-05-20T03:59:06.658Z,37.06
2023-05-20T04:00:06.697Z,37.08
2023-05-20T04:01:06.760Z,37.03
2023-05-20T04:02:06.826Z,37.06
2023-05-20T04:03:06.988Z,37.04
2023-05-20T04:04:06.936Z,37.08
2023-05-20T04:05:07.015Z,37.08
2023-05-20T04:06:07.033Z,37.09
2023-05-20T04:07:07.127Z,37.09
2023-05-20T04:08:07.176Z,37.09
2023-05-20T04:09:07.220Z,37.08
2023-05-20T04:10:07.329Z,37.11
2023-05-20T04:11:07.342Z,37.10
2023-05-20T04:12:07.518Z,37.09
2023-05-20T04:13:07.480Z,37.09
2023-05-20T04:14:07.549Z,37.08
2023-05-20T04:15:07.589Z,37.11
2023-05-20T04:16:07.700Z,37.12
2023-05-20T04:17:07.811Z,37.05
2023-05-20T04:18:07.932Z,37.03
2023-05-20T04:19:07.934Z,37.01
2023-05-20T04:20:07.893Z,36.99
2023-05-20T04:21:07.992Z,37.02
2023-05-20T04:22:08.033Z,37.04
2023-05-20T04:23:08.098Z,37.06
2023-05-20T04:24:08.162Z,37.08
2023-05-20T04:25:08.182Z,37.06
2023-05-20T04:26:08.273Z,37.07
2023-05-20T04:27:08.305Z,37.05
2023-05-20T04:28:08.383Z,37.05
2023-05-20T04:29:08.431Z,37.04
2023-05-20T04:30:08.524Z,37.00
2023-05-20T04:31:08.577Z,37.04
2023-05-20T04:32:08.742Z,37.04
2023-05-20T04:33:08.770Z,37.04
2023-05-20T04:34:08.748Z,37.05
2023-05-20T04:35:08.795Z,37.02
2023-05-20T04:36:08.884Z,37.01
2023-05-20T04:37:08.944Z,37.03
2023-05-20T04:38:09.012Z,37.03
2023-05-20T04:39:09.035Z,37.03
2023-05-20T04:40:09.126Z,37.03
2023-05-20T04:41:09.144Z,37.04
2023-05-20T04:42:09.246Z,37.06
2023-05-20T04:43:09.309Z,37.06
2023-05-20T04:44:09.358Z,37.08
2023-05-20T04:45:09.396Z,37.05
2023-05-20T04:46:09.539Z,37.07
2023-05-20T04:47:09.546Z,37.05
2023-05-20T04:48:09.702Z,37.08
2023-05-20T04:49:09.656Z,37.05
2023-05-20T04:50:09.715Z,37.05
2023-05-20T04:51:09.781Z,37.07
2023-05-20T04:52:09.821Z,37.04
2023-05-20T04:53:09.865Z,37.07
2023-05-20T04:54:09.935Z,37.03
2023-05-20T04:55:09.978Z,37.03
2023-05-20T04:56:10.062Z,37.03
2023-05-20T04:57:10.077Z,37.00
2023-05-20T04:58:10.167Z,37.03
2023-05-20T04:59:10.224Z,37.00
2023-05-20T05:00:10.260Z,37.02
2023-05-20T05:01:10.332Z,37.05
2023-05-20T05:02:10.366Z,37.03
2023-05-20T05:03:10.469Z,37.02
2023-05-20T05:04:10.520Z,37.01
2023-05-20T05:05:10.532Z,37.06
2023-05-20T05:06:10.574Z,37.04
2023-05-20T05:07:10.649Z,37.02
2023-05-20T05:08:10.708Z,37.03
2023-05-20T05:09:10.763Z,37.05
2023-05-20T05:10:10.810Z,37.05
2023-05-20T05:11:10.902Z,37.02
2023-05-20T05:12:11.004Z,37.02
2023-05-20T05:13:11.020Z,37.01
2023-05-20T05:14:11.061Z,37.04
2023-05-20T05:15:11.127Z,37.05
2023-05-20T05:16:11.216Z,37.04
2023-05-20T05:17:11.249Z,37.02
2023-05-20T05:18:11.329Z,36.98
2023-05-20T05:19:11.438Z,37.02
2023-05-20T05:20:11.425Z,36.99
2023-05-20T05:21:11.461Z,36.97
2023-05-20T05:22:11.556Z,37.03
2023-05-20T05:23:11.622Z,36.98
2023-05-20T05:24:11.688Z,37.00
2023-05-20T05:25:11.762Z,37.01
2023-05-20T05:26:11.812Z,37.00
2023-05-20T05:27:11.878Z,37.02
2023-05-20T05:28:11.932Z,37.05
2023-05-20T05:29:12.000Z,37.03
2023-05-20T05:30:12.032Z,37.02
2023-05-20T05:31:12.134Z,37.00
2023-05-20T05:32:12.184Z,37.02
2023-05-20T05:33:12.241Z,37.01
2023-05-20T05:34:12.303Z,37.01
2023-05-20T05:35:12.388Z,37.01
2023-05-20T05:36:12.394Z,37.01
2023-05-20T05:37:12.504Z,37.01
2023-05-20T05:38:12.544Z,37.02
2023-05-20T05:39:12.598Z,37.01
2023-05-20T05:40:12.692Z,37.01
2023-05-20T05:41:12.720Z,37.00
2023-05-20T05:42:12.776Z,36.99
2023-05-20T05:43:12.880Z,37.00
2023-05-20T05:44:12.916Z,36.95
2023-05-20T05:45:12.944Z,37.01
2023-05-20T05:46:13.031Z,36.99
2023-05-20T05:47:13.180Z,36.99
2023-05-20T05:48:13.177Z,36.98
2023-05-20T05:49:13.233Z,36.99
2023-05-20T05:50:13.271Z,36.98
2023-05-20T05:51:13.326Z,36.99
2023-05-20T05:52:13.359Z,36.99
2023-05-20T05:53:13.451Z,36.95
2023-05-20T05:54:13.480Z,36.98
2023-05-20T05:55:13.594Z,36.98
2023-05-20T05:56:13.581Z,36.98
2023-05-20T05:57:13.653Z,36.98
2023-05-20T05:58:13.728Z,36.99
2023-05-20T05:59:13.786Z,37.00
2023-05-20T06:00:13.817Z,36.99
2023-05-20T06:01:13.943Z,36.98
2023-05-20T06:02:13.974Z,36.95
2023-05-20T06:03:14.042Z,36.94
2023-05-20T06:04:14.134Z,36.95
2023-05-20T06:05:14.117Z,36.96
2023-05-20T06:06:14.179Z,36.98
2023-05-20T06:07:14.230Z,36.99
2023-05-20T06:08:14.316Z,36.98
2023-05-20T06:09:14.378Z,36.97
2023-05-20T06:10:14.427Z,36.98
2023-05-20T06:11:14.499Z,37.01
2023-05-20T06:12:14.538Z,37.01
2023-05-20T06:13:14.596Z,37.03
2023-05-20T06:14:14.668Z,36.98
2023-05-20T06:15:14.717Z,37.02
2023-05-20T06:16:14.809Z,36.98
2023-05-20T06:17:14.830Z,36.99
2023-05-20T06:18:14.937Z,36.96
2023-05-20T06:19:14.985Z,36.98
2023-05-20T06:20:15.005Z,36.99
2023-05-20T06:21:15.070Z,36.98
2023-05-20T06:22:15.120Z,36.96
2023-05-20T06:23:15.171Z,36.96
2023-05-20T06:24:15.244Z,37.00
2023-05-20T06:25:15.324Z,36.97
2023-05-20T06:26:15.374Z,36.96
2023-05-20T06:27:15.420Z,36.98
2023-05-20T06:28:15.443Z,36.99
2023-05-20T06:29:15.524Z,37.00
2023-05-20T06:30:15.593Z,36.98
2023-05-20T06:31:15.657Z,36.99
2023-05-20T06:32:15.669Z,37.00
2023-05-20T06:33:15.777Z,36.98
2023-05-20T06:34:15.821Z,36.96
2023-05-20T06:35:15.866Z,37.00
2023-05-20T06:36:15.942Z,36.96
2023-05-20T06:37:15.969Z,36.97
2023-05-20T06:38:16.035Z,36.97
2023-05-20T06:39:16.087Z,36.99
2023-05-20T06:40:16.155Z,36.98
2023-05-20T06:41:16.306Z,37.01
2023-05-20T06:42:16.253Z,36.99
2023-05-20T06:43:16.351Z,36.99
2023-05-20T06:44:16.385Z,36.97
2023-05-20T06:45:16.409Z,36.97
2023-05-20T06:46:16.527Z,36.96
2023-05-20T06:47:16.565Z,36.93
2023-05-20T06:48:16.612Z,36.93
2023-05-20T06:49:16.636Z,36.92
2023-05-20T06:50:16.681Z,36.94
2023-05-20T06:51:16.762Z,36.93
2023-05-20T06:52:16.805Z,36.95
2023-05-20T06:53:16.883Z,36.91
2023-05-20T06:54:16.910Z,36.91
2023-05-20T06:55:16.937Z,36.90
2023-05-20T06:56:17.002Z,36.89
2023-05-20T06:57:17.065Z,36.92
2023-05-20T06:58:17.145Z,36.90
2023-05-20T06:59:17.165Z,36.91
2023-05-20T07:00:17.198Z,36.91
2023-05-20T07:01:18.399Z,36.92
2023-05-20T07:02:17.329Z,36.89
2023-05-20T07:03:17.392Z,36.92
2023-05-20T07:04:18.526Z,36.90
2023-05-20T07:05:17.442Z,36.88
2023-05-20T07:06:17.488Z,36.88
2023-05-20T07:07:17.646Z,36.88
2023-05-20T07:08:17.602Z,36.92
2023-05-20T07:09:17.605Z,36.91
2023-05-20T07:10:17.660Z,36.89
2023-05-20T07:11:17.713Z,36.86
2023-05-20T07:12:17.756Z,36.88
2023-05-20T07:13:17.810Z,36.89
2023-05-20T07:14:17.855Z,36.84
2023-05-20T07:15:17.919Z,36.84
2023-05-20T07:16:17.997Z,36.84
2023-05-20T07:17:17.972Z,36.84
2023-05-20T07:18:18.003Z,36.81
2023-05-20T07:19:18.071Z,36.80
2023-05-20T07:20:18.094Z,36.79
2023-05-20T07:21:18.135Z,36.79
2023-05-20T07:22:18.170Z,36.79
2023-05-20T07:23:18.211Z,36.79
2023-05-20T07:24:18.265Z,36.80
2023-05-20T07:25:18.309Z,36.82
2023-05-20T07:26:18.347Z,36.80
2023-05-20T07:27:18.378Z,36.77
2023-05-20T07:28:18.390Z,36.78
2023-05-20T07:29:18.446Z,36.79
2023-05-20T07:30:18.506Z,36.78
2023-05-20T07:31:18.545Z,36.83
2023-05-20T07:32:18.544Z,36.81
2023-05-20T07:33:18.604Z,36.76
2023-05-20T07:34:18.616Z,36.77
2023-05-20T07:35:18.656Z,36.73
2023-05-20T07:36:18.706Z,36.75
2023-05-20T07:37:18.756Z,36.76
2023-05-20T07:38:18.763Z,36.74
2023-05-20T07:39:18.843Z,36.71
2023-05-20T07:40:18.835Z,36.76
2023-05-20T07:41:18.881Z,36.76
2023-05-20T07:42:18.902Z,36.76
2023-05-20T07:43:18.936Z,36.78
2023-05-20T07:44:18.944Z,36.77
2023-05-20T07:45:18.989Z,36.77
2023-05-20T07:46:20.267Z,36.77
2023-05-20T07:47:19.013Z,36.75
2023-05-20T07:48:19.064Z,36.76
2023-05-20T07:49:19.084Z,36.76
2023-05-20T07:50:19.120Z,36.76
2023-05-20T07:51:19.145Z,36.75
2023-05-20T07:52:19.161Z,36.75
2023-05-20T07:53:19.192Z,36.74
2023-05-20T07:54:19.274Z,36.79
2023-05-20T07:55:19.261Z,36.75
2023-05-20T07:56:19.279Z,36.78
2023-05-20T07:57:19.371Z,36.78
2023-05-20T07:58:19.364Z,36.77
2023-05-20T07:59:19.402Z,36.75
2023-05-20T08:00:19.461Z,36.73
2023-05-20T08:01:19.502Z,36.72
2023-05-20T08:02:19.536Z,36.77
2023-05-20T08:03:19.719Z,36.74
2023-05-20T08:04:19.602Z,36.73
2023-05-20T08:05:19.606Z,36.70
2023-05-20T08:06:19.641Z,36.72
2023-05-20T08:07:19.664Z,36.69
2023-05-20T08:08:19.727Z,36.70
2023-05-20T08:09:19.743Z,36.69
2023-05-20T08:10:19.760Z,36.68
2023-05-20T08:11:19.823Z,36.65
2023-05-20T08:12:19.839Z,36.67
2023-05-20T08:13:19.851Z,36.68
2023-05-20T08:14:19.880Z,36.65
2023-05-20T08:15:19.900Z,36.66
2023-05-20T08:16:19.944Z,36.65
2023-05-20T08:17:20.010Z,36.65
2023-05-20T08:18:19.959Z,36.65
2023-05-20T08:19:20.092Z,36.65
2023-05-20T08:20:20.027Z,36.63
2023-05-20T08:21:20.056Z,36.63
2023-05-20T08:22:20.089Z,36.59
2023-05-20T08:23:20.089Z,36.61
2023-05-20T08:24:20.101Z,36.62
2023-05-20T08:25:20.191Z,36.59
2023-05-20T08:26:20.190Z,36.60
2023-05-20T08:27:20.210Z,36.60
2023-05-20T08:28:20.212Z,36.64
2023-05-20T08:29:20.240Z,36.65
2023-05-20T08:30:20.281Z,36.63
2023-05-20T08:31:20.266Z,36.63
2023-05-20T08:32:20.323Z,36.58
2023-05-20T08:33:20.336Z,36.63
2023-05-20T08:34:20.324Z,36.63
2023-05-20T08:35:22.445Z,36.61
2023-05-20T08:36:20.348Z,36.59
2023-05-20T08:37:20.337Z,36.57
2023-05-20T08:38:20.337Z,36.59
2023-05-20T08:39:20.301Z,36.62
2023-05-20T08:40:20.323Z,36.59
2023-05-20T08:41:20.297Z,36.57
2023-05-20T08:42:20.307Z,36.56
2023-05-20T08:43:20.285Z,36.55
2023-05-20T08:44:20.279Z,36.54
2023-05-20T08:45:20.301Z,36.53
2023-05-20T08:46:20.380Z,36.52
2023-05-20T08:47:20.260Z,36.54
2023-05-20T08:48:20.273Z,36.55
2023-05-20T08:49:20.260Z,36.54
2023-05-20T08:50:20.294Z,36.58
2023-05-20T08:51:20.685Z,36.56
2023-05-20T08:52:20.256Z,36.58
2023-05-20T08:53:20.248Z,36.58
2023-05-20T08:54:20.229Z,36.58
2023-05-20T08:55:20.218Z,36.58
2023-05-20T08:56:20.191Z,36.62
2023-05-20T08:57:20.212Z,36.61
2023-05-20T08:58:20.193Z,36.58
2023-05-20T08:59:20.166Z,36.57
2023-05-20T09:00:20.320Z,36.58
2023-05-20T09:01:20.225Z,36.55
2023-05-20T09:02:20.181Z,36.56
2023-05-20T09:03:20.170Z,36.62
2023-05-20T09:04:20.184Z,36.58
2023-05-20T09:05:20.183Z,36.58
2023-05-20T09:06:20.141Z,36.56
2023-05-20T09:07:20.154Z,36.56
2023-05-20T09:08:20.155Z,36.57
2023-05-20T09:09:20.099Z,36.57
2023-05-20T09:10:20.170Z,36.56
2023-05-20T09:11:20.106Z,36.58
2023-05-20T09:12:20.082Z,36.56
2023-05-20T09:13:21.633Z,36.58
2023-05-20T09:14:20.070Z,36.59
2023-05-20T09:15:20.099Z,36.55
2023-05-20T09:16:20.143Z,36.51
2023-05-20T09:17:20.097Z,36.51
2023-05-20T09:18:20.092Z,36.52
2023-05-20T09:19:21.910Z,36.52
2023-05-20T09:20:20.083Z,36.53
2023-05-20T09:21:20.130Z,36.51
2023-05-20T09:22:20.068Z,36.49
2023-05-20T09:23:20.015Z,36.52
2023-05-20T09:24:20.015Z,36.49
2023-05-20T09:25:21.155Z,36.47
2023-05-20T09:26:20.024Z,36.45
2023-05-20T09:27:20.006Z,36.47
2023-05-20T09:28:19.985Z,36.43
2023-05-20T09:29:19.982Z,36.43
2023-05-20T09:30:20.010Z,36.42
2023-05-20T09:31:20.066Z,36.40
2023-05-20T09:32:19.949Z,36.41
2023-05-20T09:33:19.945Z,36.40
2023-05-20T09:34:19.950Z,36.40
2023-05-20T09:35:19.931Z,36.40
2023-05-20T09:36:19.935Z,36.44
2023-05-20T09:37:19.942Z,36.42
2023-05-20T09:38:19.924Z,36.41
2023-05-20T09:39:19.922Z,36.40
2023-05-20T09:40:19.952Z,36.38
2023-05-20T09:41:19.920Z,36.36
2023-05-20T09:42:19.884Z,36.36
2023-05-20T09:43:19.902Z,36.35
2023-05-20T09:44:19.890Z,36.38
2023-05-20T09:45:19.897Z,36.38
2023-05-20T09:46:19.850Z,36.37
2023-05-20T09:47:19.842Z,36.37
2023-05-20T09:48:19.912Z,36.39
2023-05-20T09:49:19.842Z,36.40
2023-05-20T09:50:19.875Z,36.37
2023-05-20T09:51:19.843Z,36.40
2023-05-20T09:52:21.410Z,36.38
2023-05-20T09:53:19.840Z,36.32
2023-05-20T09:54:19.838Z,36.35
2023-05-20T09:55:19.844Z,36.34
2023-05-20T09:56:19.803Z,36.33
2023-05-20T09:57:19.789Z,36.32
2023-05-20T09:58:19.776Z,36.30
2023-05-20T09:59:19.797Z,36.28
2023-05-20T10:00:20.012Z,36.30
2023-05-20T10:01:19.800Z,36.30
2023-05-20T10:02:19.808Z,36.32
2023-05-20T10:03:19.810Z,36.31
2023-05-20T10:04:19.771Z,36.32
2023-05-20T10:05:19.761Z,36.32
2023-05-20T10:06:19.749Z,36.35
2023-05-20T10:07:30.538Z,36.37
2023-05-20T10:08:20.742Z,36.34
2023-05-20T10:09:19.724Z,36.36
2023-05-20T10:10:19.727Z,36.32
2023-05-20T10:11:19.743Z,36.33
2023-05-20T10:12:19.686Z,36.35
2023-05-20T10:13:19.697Z,36.35
2023-05-20T10:14:19.704Z,36.33
2023-05-20T10:15:19.684Z,36.37
2023-05-20T10:16:19.751Z,36.38
2023-05-20T10:17:19.703Z,36.36
2023-05-20T10:18:19.656Z,36.40
2023-05-20T10:19:19.719Z,36.37
2023-05-20T10:20:19.656Z,36.33
2023-05-20T10:21:19.638Z,36.33
2023-05-20T10:22:19.637Z,36.34
2023-05-20T10:23:19.635Z,36.36
2023-05-20T10:24:19.620Z,36.36
2023-05-20T10:25:19.642Z,36.33
2023-05-20T10:26:19.631Z,36.34
2023-05-20T10:27:19.605Z,36.34
2023-05-20T10:28:19.612Z,36.33
2023-05-20T10:29:19.735Z,36.33
2023-05-20T10:30:19.777Z,36.29
2023-05-20T10:31:19.843Z,36.29
2023-05-20T10:32:19.769Z,36.29
2023-05-20T10:33:19.828Z,36.27
2023-05-20T10:34:19.791Z,36.25
2023-05-20T10:35:19.888Z,36.26
2023-05-20T10:36:19.976Z,36.24
2023-05-20T10:37:20.037Z,36.24
2023-05-20T10:38:20.124Z,36.21
2023-05-20T10:39:20.145Z,36.21
2023-05-20T10:40:20.134Z,36.22
2023-05-20T10:41:20.132Z,36.21
2023-05-20T10:42:20.106Z,36.20
2023-05-20T10:43:20.886Z,36.20
2023-05-20T10:44:20.116Z,36.18
2023-05-20T10:45:20.095Z,36.15
2023-05-20T10:46:31.157Z,36.15
2023-05-20T10:47:25.918Z,36.12
2023-05-20T10:48:21.146Z,36.14
2023-05-20T10:49:22.423Z,36.15
2023-05-20T10:50:20.071Z,36.12
2023-05-20T10:51:20.074Z,36.09
2023-05-20T10:52:20.064Z,36.12
2023-05-20T10:53:32.383Z,36.08
2023-05-20T10:54:21.050Z,36.10
2023-05-20T10:55:20.052Z,36.06
2023-05-20T10:56:20.051Z,36.07
2023-05-20T10:57:20.041Z,36.06
2023-05-20T10:58:20.003Z,36.05
2023-05-20T10:59:20.001Z,36.03
2023-05-20T11:00:20.012Z,36.04
2023-05-20T11:01:20.049Z,36.02
2023-05-20T11:02:20.009Z,36.00
2023-05-20T11:03:20.044Z,36.02
2023-05-20T11:04:20.043Z,36.00
2023-05-20T11:05:19.974Z,35.98
2023-05-20T11:06:19.984Z,35.99
2023-05-20T11:07:19.976Z,36.01
2023-05-20T11:08:29.218Z,35.97
2023-05-20T11:09:20.989Z,35.98
2023-05-20T11:10:19.968Z,35.98
2023-05-20T11:11:19.939Z,35.95
2023-05-20T11:12:19.925Z,35.96
2023-05-20T11:13:20.004Z,35.95
2023-05-20T11:14:19.916Z,35.96
2023-05-20T11:15:19.908Z,35.98
2023-05-20T11:16:19.948Z,35.99
2023-05-20T11:17:19.894Z,35.98
2023-05-20T11:18:19.950Z,35.96
2023-05-20T11:19:20.009Z,35.95
2023-05-20T11:20:19.893Z,35.98
2023-05-20T11:21:19.902Z,35.98
2023-05-20T11:22:19.917Z,35.96
2023-05-20T11:23:19.929Z,35.99
2023-05-20T11:24:19.985Z,36.00
2023-05-20T11:25:20.005Z,35.97
2023-05-20T11:26:20.083Z,35.98
2023-05-20T11:27:20.132Z,35.95
2023-05-20T11:28:20.158Z,35.95
2023-05-20T11:29:20.211Z,35.96
2023-05-20T11:30:20.251Z,35.97
2023-05-20T11:31:20.328Z,35.96
2023-05-20T11:32:20.447Z,35.96
2023-05-20T11:33:20.574Z,35.99
2023-05-20T11:34:21.446Z,35.97
2023-05-20T11:35:20.588Z,35.97
2023-05-20T11:36:27.801Z,35.95
2023-05-20T11:37:21.637Z,35.95
2023-05-20T11:38:20.608Z,35.94
2023-05-20T11:39:20.614Z,35.95
2023-05-20T11:40:20.589Z,35.95
2023-05-20T11:41:20.592Z,35.93
2023-05-20T11:42:20.601Z,35.92
2023-05-20T11:43:20.608Z,35.89
2023-05-20T11:44:20.624Z,35.89
2023-05-20T11:45:20.642Z,35.90
2023-05-20T11:46:20.772Z,35.88
2023-05-20T11:47:22.564Z,35.91
2023-05-20T11:48:20.847Z,35.90
2023-05-20T11:49:20.921Z,35.91
2023-05-20T11:50:20.980Z,35.86
2023-05-20T11:51:21.006Z,35.87
2023-05-20T11:52:21.108Z,35.80
2023-05-20T11:53:21.120Z,35.82
2023-05-20T11:54:21.203Z,35.83
2023-05-20T11:55:21.244Z,35.83
2023-05-20T11:56:21.318Z,35.81
2023-05-20T11:57:21.409Z,35.78
2023-05-20T11:58:21.480Z,35.82
2023-05-20T11:59:21.650Z,35.81
2023-05-20T12:00:21.557Z,35.79
2023-05-20T12:01:23.040Z,35.79
2023-05-20T12:02:21.734Z,35.83
2023-05-20T12:03:21.974Z,35.80
2023-05-20T12:04:21.895Z,35.80
2023-05-20T12:05:21.875Z,35.81
2023-05-20T12:06:21.948Z,35.81
2023-05-20T12:07:21.994Z,35.78
2023-05-20T12:08:22.078Z,35.75
2023-05-20T12:09:22.089Z,35.76
2023-05-20T12:10:22.157Z,35.74
2023-05-20T12:11:22.947Z,35.75
2023-05-20T12:12:22.258Z,35.73
2023-05-20T12:13:22.311Z,35.76
2023-05-20T12:14:22.377Z,35.76
2023-05-20T12:15:22.434Z,35.74
2023-05-20T12:16:22.571Z,35.75
2023-05-20T12:17:22.499Z,35.76
2023-05-20T12:18:22.553Z,35.74
2023-05-20T12:19:22.612Z,35.73
2023-05-20T12:20:22.681Z,35.77
2023-05-20T12:21:22.728Z,35.78
2023-05-20T12:22:22.784Z,35.77
2023-05-20T12:23:22.829Z,35.81
2023-05-20T12:24:22.858Z,35.77
2023-05-20T12:25:22.950Z,35.79
2023-05-20T12:26:22.970Z,35.82
2023-05-20T12:27:23.040Z,35.82
2023-05-20T12:28:23.089Z,35.82
2023-05-20T12:29:23.130Z,35.81
2023-05-20T12:30:23.284Z,35.81
2023-05-20T12:31:23.364Z,35.82
2023-05-20T12:32:23.347Z,35.81
2023-05-20T12:33:23.379Z,35.83
2023-05-20T12:34:23.413Z,35.86
2023-05-20T12:35:23.476Z,35.85
2023-05-20T12:36:23.541Z,35.86
2023-05-20T12:37:23.599Z,35.85
2023-05-20T12:38:23.651Z,35.86
2023-05-20T12:39:23.697Z,35.85
2023-05-20T12:40:23.760Z,35.84
2023-05-20T12:41:23.817Z,35.85
2023-05-20T12:42:23.874Z,35.86
2023-05-20T12:43:23.966Z,35.88
2023-05-20T12:44:24.008Z,35.85
2023-05-20T12:45:24.038Z,35.87
2023-05-20T12:46:24.173Z,35.84
2023-05-20T12:47:24.231Z,35.85
2023-05-20T12:48:24.185Z,35.86
2023-05-20T12:49:24.373Z,35.84
2023-05-20T12:50:24.338Z,35.87
2023-05-20T12:51:24.384Z,35.86
2023-05-20T12:52:24.426Z,35.87
2023-05-20T12:53:24.476Z,35.84